Time;durP1;ratioP1;P1;durP2;ratioP2;P2;SDS_P1;SDS_P2;PMS_P1;PMS_P2;Temp;Humidity;BMP_temperature;BMP_pressure;BME280_temperature;BME280_humidity;BME280_pressure;Samples;Min_cycle;Max_cycle;Signal;HPM_P1;HPM_P2
2022/03/21 00:01:10;;;;;;;54.85;36.90;;;5.10;99.90;;;;;;5010126;28;20068;-64
2022/03/21 00:03:36;;;;;;;56.38;37.13;;;5.10;99.90;;;;;;4994633;28;20042;-65
2022/03/21 00:06:02;;;;;;;57.88;39.58;;;5.10;99.90;;;;;;4994933;28;20414;-65
2022/03/21 00:08:28;;;;;;;54.67;36.80;;;5.00;99.90;;;;;;4993902;28;20065;-63
2022/03/21 00:10:55;;;;;;;56.47;37.10;;;5.00;99.90;;;;;;5010081;28;20092;-64
2022/03/21 00:13:22;;;;;;;56.45;37.88;;;5.00;99.90;;;;;;4993154;28;20134;-65
2022/03/21 00:15:50;;;;;;;56.90;38.90;;;5.00;99.90;;;;;;4993156;28;20050;-65
2022/03/21 00:18:16;;;;;;;54.15;37.53;;;5.00;99.90;;;;;;4976665;28;20058;-66
2022/03/21 00:20:44;;;;;;;56.55;37.08;;;5.00;99.90;;;;;;4986746;28;20058;-66
2022/03/21 00:23:10;;;;;;;53.30;36.70;;;5.00;99.90;;;;;;4993793;28;20058;-64
2022/03/21 00:25:36;;;;;;;59.15;37.83;;;5.10;99.90;;;;;;4993768;28;20371;-66
2022/03/21 00:28:03;;;;;;;61.47;40.97;;;5.00;99.90;;;;;;4994331;28;20086;-65
2022/03/21 00:30:29;;;;;;;59.13;38.28;;;5.00;99.90;;;;;;4990990;28;20055;-66
2022/03/21 00:32:55;;;;;;;57.00;38.60;;;5.00;99.90;;;;;;4992176;28;20510;-65
2022/03/21 00:35:21;;;;;;;61.25;41.40;;;5.00;99.90;;;;;;5010099;28;20120;-65
2022/03/21 00:37:47;;;;;;;59.28;39.78;;;5.00;99.90;;;;;;4994127;28;20094;-65
2022/03/21 00:40:15;;;;;;;57.97;39.20;;;5.00;99.90;;;;;;4993728;28;20046;-66
2022/03/21 00:42:44;;;;;;;56.55;37.38;;;5.00;99.90;;;;;;4994114;28;20061;-64
2022/03/21 00:45:12;;;;;;;57.28;37.42;;;5.00;99.90;;;;;;4992442;28;20406;-64
2022/03/21 00:47:42;;;;;;;58.53;39.42;;;5.00;99.90;;;;;;5009796;28;20141;-66
2022/03/21 00:50:09;;;;;;;51.92;35.20;;;4.90;99.90;;;;;;4994131;28;20172;-65
2022/03/21 00:52:47;;;;;;;58.05;37.03;;;5.00;99.90;;;;;;4993231;28;20232;-66
2022/03/21 00:55:14;;;;;;;58.97;37.28;;;5.00;99.90;;;;;;4994659;28;20136;-65
2022/03/21 00:57:42;;;;;;;51.13;33.88;;;5.00;99.90;;;;;;4994094;28;20388;-64
2022/03/21 01:00:12;;;;;;;52.75;33.58;;;5.10;99.90;;;;;;4982262;28;20483;-65
2022/03/21 01:02:38;;;;;;;53.55;34.65;;;5.00;99.90;;;;;;4993017;28;20082;-65
2022/03/21 01:05:05;;;;;;;48.47;32.25;;;5.00;99.90;;;;;;5009582;28;20054;-65
2022/03/21 01:07:31;;;;;;;45.50;29.70;;;5.00;99.90;;;;;;5005912;28;20554;-66
2022/03/21 01:09:57;;;;;;;41.05;27.58;;;5.10;99.90;;;;;;4991042;28;20051;-65
2022/03/21 01:12:24;;;;;;;43.90;28.98;;;5.10;99.90;;;;;;4992256;28;20065;-65
2022/03/21 01:14:49;;;;;;;43.70;28.70;;;5.10;99.90;;;;;;4979961;28;20090;-64
2022/03/21 01:17:15;;;;;;;38.47;24.30;;;5.10;99.90;;;;;;4993755;28;20051;-64
2022/03/21 01:19:40;;;;;;;34.67;22.95;;;5.10;99.90;;;;;;4976141;28;20058;-63
2022/03/21 01:22:06;;;;;;;36.15;22.98;;;5.20;99.90;;;;;;4992017;28;20042;-64
2022/03/21 01:24:35;;;;;;;34.55;21.98;;;5.10;99.90;;;;;;4991688;28;20145;-64
2022/03/21 01:27:05;;;;;;;31.25;22.63;;;5.20;99.90;;;;;;4986454;28;20050;-63
2022/03/21 01:29:32;;;;;;;27.65;19.00;;;5.20;99.90;;;;;;5008986;28;20058;-63
2022/03/21 01:31:58;;;;;;;33.00;18.75;;;5.10;99.90;;;;;;4993405;28;20486;-63
2022/03/21 01:34:24;;;;;;;26.35;18.13;;;5.10;99.90;;;;;;5008809;28;20116;-64
2022/03/21 01:36:49;;;;;;;28.70;17.10;;;5.10;99.90;;;;;;4992634;28;20487;-64
2022/03/21 01:39:15;;;;;;;25.77;16.35;;;5.00;99.90;;;;;;4992049;28;20134;-64
2022/03/21 01:41:41;;;;;;;29.83;18.77;;;5.00;99.90;;;;;;4993368;28;20042;-63
2022/03/21 01:44:08;;;;;;;27.52;17.10;;;5.00;99.90;;;;;;4992383;28;20549;-65
2022/03/21 01:46:35;;;;;;;27.98;17.95;;;4.90;99.90;;;;;;4991911;28;20058;-63
2022/03/21 01:49:03;;;;;;;27.95;17.10;;;4.90;99.90;;;;;;4993542;28;20151;-65
2022/03/21 01:51:29;;;;;;;27.23;16.55;;;5.00;99.90;;;;;;4991998;28;20116;-63
2022/03/21 01:56:42;;;;;;;26.05;17.08;;;4.90;99.90;;;;;;4991643;28;20046;-65
2022/03/21 01:59:09;;;;;;;23.77;15.70;;;4.90;99.90;;;;;;4993701;28;20050;-65
2022/03/21 02:01:35;;;;;;;28.08;17.02;;;4.90;99.90;;;;;;4986653;28;20503;-66
2022/03/21 02:04:01;;;;;;;25.60;16.40;;;4.80;99.90;;;;;;4972815;28;20537;-65
2022/03/21 02:06:29;;;;;;;22.63;16.08;;;4.70;99.90;;;;;;4981484;28;20051;-65
2022/03/21 02:08:57;;;;;;;27.50;15.75;;;4.60;99.90;;;;;;4991181;28;20474;-66
2022/03/21 02:11:26;;;;;;;23.40;14.35;;;4.60;99.90;;;;;;4992388;28;20046;-64
2022/03/21 02:13:56;;;;;;;25.10;15.68;;;4.50;99.90;;;;;;4977568;28;20498;-65
2022/03/21 02:16:26;;;;;;;26.30;14.63;;;4.40;99.90;;;;;;4993291;28;20123;-66
2022/03/21 02:18:53;;;;;;;27.67;15.45;;;4.40;99.90;;;;;;4991889;28;20449;-65
2022/03/21 02:21:41;;;;;;;23.65;16.00;;;4.30;99.90;;;;;;4992959;28;20513;-65
2022/03/21 02:24:21;;;;;;;24.88;14.80;;;4.20;99.90;;;;;;4992741;28;20573;-64
2022/03/21 02:26:47;;;;;;;22.15;14.90;;;4.10;99.90;;;;;;4990595;28;20058;-64
2022/03/21 02:29:14;;;;;;;22.67;14.88;;;4.20;99.90;;;;;;4992039;28;20100;-65
2022/03/21 02:31:41;;;;;;;22.90;15.18;;;4.00;99.90;;;;;;4993630;28;20050;-66
2022/03/21 02:34:07;;;;;;;25.33;15.05;;;3.90;99.90;;;;;;4992640;28;20062;-67
2022/03/21 02:36:33;;;;;;;27.20;14.95;;;3.90;99.90;;;;;;4989209;28;20050;-66
2022/03/21 02:38:59;;;;;;;23.13;13.75;;;3.80;99.90;;;;;;5008566;28;20058;-65
2022/03/21 02:41:25;;;;;;;25.05;14.70;;;3.80;99.90;;;;;;4990614;28;20060;-65
2022/03/21 02:43:57;;;;;;;20.90;13.57;;;3.70;99.90;;;;;;4990898;28;20413;-65
2022/03/21 02:46:24;;;;;;;24.70;14.77;;;3.60;99.90;;;;;;4992029;28;20457;-65
2022/03/21 02:48:52;;;;;;;24.10;13.30;;;3.60;99.90;;;;;;5008242;28;20109;-66
2022/03/21 02:51:21;;;;;;;19.77;12.98;;;3.60;99.90;;;;;;4991585;28;20422;-66
2022/03/21 02:53:49;;;;;;;21.00;14.07;;;3.50;99.90;;;;;;4983858;28;20081;-65
2022/03/21 02:56:15;;;;;;;21.85;13.60;;;3.40;99.90;;;;;;4991806;28;20056;-66
2022/03/21 02:58:41;;;;;;;22.98;13.43;;;3.40;99.90;;;;;;4990966;28;20453;-66
2022/03/21 03:01:12;;;;;;;23.92;14.05;;;3.40;99.90;;;;;;4992316;28;20050;-65
2022/03/21 03:03:38;;;;;;;24.23;14.45;;;3.30;99.90;;;;;;5008262;28;20394;-66
2022/03/21 03:06:04;;;;;;;22.38;14.32;;;3.30;99.90;;;;;;4992348;28;20054;-67
2022/03/21 03:08:31;;;;;;;22.23;13.75;;;3.30;99.90;;;;;;4990901;28;20157;-65
2022/03/21 03:10:57;;;;;;;21.98;13.77;;;3.20;99.90;;;;;;4991907;28;20129;-66
2022/03/21 03:13:23;;;;;;;24.95;14.45;;;3.10;99.90;;;;;;4974719;28;20173;-64
2022/03/21 03:15:49;;;;;;;22.33;13.25;;;3.10;99.90;;;;;;4992861;28;20491;-64
2022/03/21 03:18:15;;;;;;;19.98;12.98;;;3.10;99.90;;;;;;4991571;28;20128;-66
2022/03/21 03:20:48;;;;;;;21.77;13.45;;;3.10;99.90;;;;;;4991301;28;20133;-65
2022/03/21 03:23:13;;;;;;;25.38;13.13;;;3.00;99.90;;;;;;4995158;28;20050;-65
2022/03/21 03:25:39;;;;;;;23.98;13.00;;;2.90;99.90;;;;;;4996005;28;20517;-65
2022/03/21 03:28:05;;;;;;;18.85;12.07;;;2.90;99.90;;;;;;4995932;28;20057;-64
2022/03/21 03:30:31;;;;;;;23.63;13.52;;;2.80;99.90;;;;;;4978453;28;20116;-65
2022/03/21 03:32:56;;;;;;;21.33;12.80;;;2.80;99.90;;;;;;4994271;28;20054;-65
2022/03/21 03:35:22;;;;;;;20.75;13.52;;;2.70;99.90;;;;;;4992227;28;20107;-65
2022/03/21 03:37:47;;;;;;;22.52;12.80;;;2.70;99.90;;;;;;4993333;28;20058;-67
2022/03/21 03:40:14;;;;;;;23.50;13.10;;;2.60;99.90;;;;;;4993768;28;20058;-66
2022/03/21 03:42:39;;;;;;;19.63;12.43;;;2.60;99.90;;;;;;4993848;28;20425;-65
2022/03/21 03:45:06;;;;;;;20.58;12.77;;;2.60;99.90;;;;;;4995074;28;20057;-65
2022/03/21 03:47:31;;;;;;;21.90;13.65;;;2.50;99.90;;;;;;4993806;28;20054;-66
2022/03/21 03:49:58;;;;;;;20.15;12.18;;;2.50;99.90;;;;;;4994459;28;20057;-64
2022/03/21 03:52:24;;;;;;;23.55;13.35;;;2.40;99.90;;;;;;4993784;28;20097;-63
2022/03/21 03:54:49;;;;;;;24.02;13.35;;;2.90;99.90;;;;;;4994938;28;20094;-64
2022/03/21 03:57:15;;;;;;;24.40;14.00;;;2.40;99.90;;;;;;4992987;28;20047;-64
2022/03/21 03:59:40;;;;;;;22.52;13.05;;;2.30;99.90;;;;;;4995662;28;20058;-64
2022/03/21 04:02:08;;;;;;;22.98;13.15;;;2.30;99.90;;;;;;4995024;28;20058;-64
2022/03/21 04:04:34;;;;;;;23.65;14.07;;;2.30;99.90;;;;;;4994527;28;20050;-64
2022/03/21 04:06:59;;;;;;;24.77;14.25;;;2.30;99.90;;;;;;4995304;28;20062;-64
2022/03/21 04:09:25;;;;;;;26.42;13.55;;;2.20;99.90;;;;;;4993716;28;20434;-64
2022/03/21 04:11:50;;;;;;;24.55;13.07;;;2.20;99.90;;;;;;4982784;28;20483;-64
2022/03/21 04:14:16;;;;;;;22.35;13.68;;;2.10;99.90;;;;;;4991071;28;20054;-66
2022/03/21 04:16:44;;;;;;;23.50;13.52;;;2.20;99.90;;;;;;4995333;28;20062;-64
2022/03/21 04:19:10;;;;;;;24.25;13.68;;;2.10;99.90;;;;;;4994297;28;20085;-65
2022/03/21 04:21:35;;;;;;;23.45;13.52;;;2.10;99.90;;;;;;4983476;28;20069;-65
2022/03/21 04:24:01;;;;;;;22.60;13.32;;;2.10;99.90;;;;;;4990078;28;20134;-65
2022/03/21 04:26:27;;;;;;;22.98;13.90;;;2.00;99.90;;;;;;4992804;28;20046;-65
2022/03/21 04:28:52;;;;;;;22.85;12.93;;;2.00;99.90;;;;;;4995144;28;20051;-65
2022/03/21 04:31:18;;;;;;;21.10;12.60;;;2.00;99.90;;;;;;4987534;28;20076;-65
2022/03/21 04:33:43;;;;;;;24.75;13.75;;;1.90;99.90;;;;;;4993114;28;20109;-65
2022/03/21 04:36:10;;;;;;;23.13;13.27;;;1.90;99.90;;;;;;4993457;28;20550;-65
2022/03/21 04:38:35;;;;;;;20.15;13.05;;;1.90;99.90;;;;;;4994447;28;20514;-65
2022/03/21 04:41:01;;;;;;;24.75;13.48;;;1.90;99.90;;;;;;4993327;28;20077;-66
2022/03/21 04:43:27;;;;;;;23.77;12.88;;;1.80;99.90;;;;;;4990398;28;20499;-65
2022/03/21 04:45:52;;;;;;;23.45;13.40;;;1.80;99.90;;;;;;4966956;28;20051;-66
2022/03/21 04:48:21;;;;;;;21.90;12.73;;;1.80;99.90;;;;;;4992994;28;20086;-65
2022/03/21 04:50:46;;;;;;;21.67;12.27;;;1.70;99.90;;;;;;4993719;28;20054;-66
2022/03/21 04:53:12;;;;;;;23.40;12.68;;;1.70;99.90;;;;;;5005811;28;20059;-65
2022/03/21 04:55:40;;;;;;;23.48;13.07;;;1.70;99.90;;;;;;4973887;28;20051;-65
2022/03/21 04:58:05;;;;;;;23.02;13.13;;;1.70;99.90;;;;;;4981005;28;20058;-64
2022/03/21 05:00:31;;;;;;;24.77;12.82;;;1.70;99.90;;;;;;4993201;28;20051;-65
2022/03/21 05:02:57;;;;;;;20.42;12.05;;;1.60;99.90;;;;;;5009500;28;20149;-65
2022/03/21 05:05:24;;;;;;;20.15;12.52;;;1.60;99.90;;;;;;4994378;28;20137;-65
2022/03/21 05:07:52;;;;;;;28.45;13.80;;;1.60;99.90;;;;;;4992693;28;20054;-66
2022/03/21 05:10:20;;;;;;;20.10;12.73;;;1.50;99.90;;;;;;4992984;28;20054;-65
2022/03/21 05:12:45;;;;;;;21.90;12.45;;;1.50;99.90;;;;;;5008481;28;20053;-64
2022/03/21 05:15:11;;;;;;;26.05;12.85;;;1.50;99.90;;;;;;4994161;28;20050;-64
2022/03/21 05:17:37;;;;;;;26.08;13.88;;;1.50;99.90;;;;;;4992001;28;20047;-66
2022/03/21 05:20:15;;;;;;;19.83;12.38;;;1.40;99.90;;;;;;4992706;28;20046;-66
2022/03/21 05:22:42;;;;;;;24.75;14.13;;;1.50;99.90;;;;;;4992682;28;20126;-65
2022/03/21 05:36:05;;;;;;;25.52;13.63;;;1.30;99.90;;;;;;4992718;28;20058;-64
2022/03/21 05:38:31;;;;;;;22.67;13.43;;;1.30;99.90;;;;;;4992372;28;20495;-66
2022/03/21 05:41:00;;;;;;;24.60;13.93;;;1.30;99.90;;;;;;4991760;28;20058;-65
2022/03/21 05:43:27;;;;;;;23.88;12.80;;;1.20;99.90;;;;;;4992240;28;20092;-65
2022/03/21 05:45:53;;;;;;;21.48;12.27;;;1.20;99.90;;;;;;4990368;28;20046;-64
2022/03/21 05:51:04;;;;;;;20.15;13.57;;;1.20;99.90;;;;;;4991985;28;20066;-64
2022/03/21 05:53:30;;;;;;;24.15;13.40;;;1.20;99.90;;;;;;5007790;28;20497;-65
2022/03/21 05:55:58;;;;;;;25.80;14.30;;;1.20;99.90;;;;;;4992334;28;20058;-65
2022/03/21 05:58:24;;;;;;;26.50;14.50;;;1.40;99.90;;;;;;4991520;28;20050;-65
2022/03/21 06:00:49;;;;;;;28.95;14.82;;;1.20;99.90;;;;;;4989390;28;20081;-64
2022/03/21 06:03:15;;;;;;;24.25;13.65;;;1.20;99.90;;;;;;4992187;28;20057;-65
2022/03/21 06:05:40;;;;;;;25.77;13.52;;;1.20;99.90;;;;;;4991795;28;20614;-65
2022/03/21 06:08:08;;;;;;;25.58;12.80;;;1.30;99.90;;;;;;4992078;28;20043;-64
2022/03/21 06:10:34;;;;;;;23.73;11.95;;;1.20;99.90;;;;;;4993016;28;20066;-64
2022/03/21 06:13:01;;;;;;;23.98;12.90;;;1.30;99.90;;;;;;4992834;28;20058;-64
2022/03/21 06:15:27;;;;;;;24.08;13.88;;;1.30;99.90;;;;;;4975425;28;20443;-65
2022/03/21 06:17:57;;;;;;;18.98;11.40;;;1.20;99.90;;;;;;4991954;28;20057;-64
2022/03/21 06:20:23;;;;;;;20.85;11.80;;;1.30;99.90;;;;;;4991849;28;20054;-65
2022/03/21 06:22:48;;;;;;;23.27;13.30;;;1.30;99.90;;;;;;4991633;28;20104;-65
2022/03/21 06:25:14;;;;;;;23.52;12.77;;;1.30;99.90;;;;;;4991532;28;20050;-64
2022/03/21 06:27:40;;;;;;;18.95;12.50;;;1.30;99.90;;;;;;4992913;28;20050;-65
2022/03/21 06:30:08;;;;;;;21.77;12.38;;;1.40;99.90;;;;;;4991577;28;20055;-65
2022/03/21 06:32:35;;;;;;;27.50;13.63;;;1.40;99.90;;;;;;4990271;28;20070;-66
2022/03/21 06:35:01;;;;;;;24.65;13.38;;;1.50;99.90;;;;;;4992120;28;20089;-66
2022/03/21 06:37:27;;;;;;;26.70;12.65;;;1.60;99.90;;;;;;4991535;28;20084;-65
2022/03/21 06:39:53;;;;;;;24.35;13.63;;;1.70;99.90;;;;;;4990047;28;20054;-66
2022/03/21 06:42:21;;;;;;;18.30;11.43;;;1.90;99.90;;;;;;5008108;28;20052;-66
2022/03/21 06:44:50;;;;;;;25.00;12.70;;;1.90;99.90;;;;;;4995185;28;20199;-65
2022/03/21 06:47:18;;;;;;;25.05;13.75;;;2.00;99.90;;;;;;4987214;28;20133;-65
2022/03/21 06:49:44;;;;;;;23.17;14.02;;;2.10;99.90;;;;;;5000187;28;20088;-65
2022/03/21 06:52:11;;;;;;;22.98;14.82;;;2.30;99.90;;;;;;4983399;28;20410;-64
2022/03/21 06:54:37;;;;;;;24.90;14.73;;;2.40;99.90;;;;;;4984115;28;20514;-65
2022/03/21 06:57:05;;;;;;;27.17;14.80;;;2.50;99.90;;;;;;4987264;28;20057;-65
2022/03/21 06:59:32;;;;;;;24.98;15.38;;;2.60;99.90;;;;;;4986409;28;20058;-65
2022/03/21 07:01:58;;;;;;;29.65;14.65;;;2.70;99.90;;;;;;4987018;28;20170;-65
2022/03/21 07:04:26;;;;;;;29.55;16.90;;;2.80;99.90;;;;;;4992949;28;20153;-64
2022/03/21 07:06:53;;;;;;;29.83;16.05;;;2.90;99.90;;;;;;4988828;28;20069;-65
2022/03/21 07:09:20;;;;;;;29.95;16.67;;;3.00;99.90;;;;;;4988654;28;20065;-64
2022/03/21 07:11:47;;;;;;;26.13;16.27;;;3.20;99.90;;;;;;4991577;28;20073;-64
2022/03/21 07:14:12;;;;;;;30.00;17.23;;;3.30;99.90;;;;;;4975715;28;20054;-64
2022/03/21 07:16:38;;;;;;;34.25;16.88;;;3.40;99.90;;;;;;4975761;28;20129;-65
2022/03/21 07:19:04;;;;;;;32.38;17.50;;;3.50;99.90;;;;;;4979780;28;20136;-65
2022/03/21 07:21:30;;;;;;;34.78;18.70;;;3.70;99.90;;;;;;4990913;28;20086;-63
2022/03/21 07:23:56;;;;;;;30.70;17.92;;;3.80;99.90;;;;;;4995390;28;20046;-65
2022/03/21 07:26:21;;;;;;;30.85;17.73;;;3.90;99.90;;;;;;4995084;28;20478;-67
2022/03/21 07:28:47;;;;;;;31.77;18.42;;;4.10;99.90;;;;;;4988968;28;20047;-66
2022/03/21 07:31:13;;;;;;;30.02;17.15;;;4.30;99.90;;;;;;4975154;28;20105;-64
2022/03/21 07:33:40;;;;;;;34.30;18.63;;;4.40;99.90;;;;;;4991739;28;20054;-65
2022/03/21 07:36:07;;;;;;;32.42;18.35;;;4.50;99.90;;;;;;4996026;28;20058;-65
2022/03/21 07:38:33;;;;;;;27.15;16.40;;;4.60;99.90;;;;;;4985825;28;20055;-65
2022/03/21 07:40:59;;;;;;;27.10;17.25;;;4.80;99.90;;;;;;4975496;28;20057;-65
2022/03/21 07:43:25;;;;;;;30.73;17.92;;;4.90;99.90;;;;;;4990721;28;20050;-65
2022/03/21 07:48:34;;;;;;;27.55;16.50;;;5.20;99.90;;;;;;4994437;28;20050;-66
2022/03/21 07:51:00;;;;;;;28.27;17.20;;;5.40;99.90;;;;;;4994099;28;20482;-65
2022/03/21 07:53:26;;;;;;;24.40;16.35;;;5.50;99.90;;;;;;4994212;28;20136;-66
2022/03/21 07:55:52;;;;;;;23.83;16.75;;;5.60;99.90;;;;;;5007094;28;20050;-66
2022/03/21 07:58:17;;;;;;;26.15;16.83;;;5.80;99.90;;;;;;4992598;28;20050;-65
2022/03/21 08:00:43;;;;;;;26.48;17.15;;;6.00;99.90;;;;;;4991226;28;20070;-64
2022/03/21 08:03:14;;;;;;;28.17;15.82;;;6.10;99.90;;;;;;4967154;28;20398;-66
2022/03/21 08:05:40;;;;;;;27.10;16.73;;;6.20;99.90;;;;;;4981918;28;20517;-66
2022/03/21 08:08:07;;;;;;;26.63;17.98;;;6.30;99.90;;;;;;4974077;28;20069;-65
2022/03/21 08:10:33;;;;;;;25.15;17.08;;;6.50;99.90;;;;;;4978759;28;20089;-66
2022/03/21 08:12:58;;;;;;;28.30;16.95;;;6.60;99.90;;;;;;4994769;28;20050;-65
2022/03/21 08:15:26;;;;;;;25.67;16.80;;;6.80;99.90;;;;;;4994864;28;20058;-66
2022/03/21 08:17:56;;;;;;;24.40;16.10;;;6.90;99.90;;;;;;5001347;28;20137;-66
2022/03/21 08:20:23;;;;;;;24.38;16.88;;;7.00;99.90;;;;;;4988423;28;20801;-66
2022/03/21 08:22:49;;;;;;;26.02;15.90;;;7.10;99.90;;;;;;4976270;28;20051;-67
2022/03/21 08:25:16;;;;;;;24.77;15.88;;;7.30;99.90;;;;;;4958741;28;20051;-67
2022/03/21 08:27:43;;;;;;;23.52;14.95;;;7.40;99.90;;;;;;4974343;28;20061;-65
2022/03/21 08:30:11;;;;;;;22.27;14.98;;;7.60;99.90;;;;;;4975050;28;20055;-64
2022/03/21 08:32:36;;;;;;;22.83;15.38;;;7.70;99.90;;;;;;4975509;28;20099;-67
2022/03/21 08:35:02;;;;;;;19.55;14.60;;;7.90;99.90;;;;;;4977476;28;20090;-66
2022/03/21 08:37:28;;;;;;;20.00;14.82;;;8.00;99.90;;;;;;5009679;28;20145;-66
2022/03/21 08:39:53;;;;;;;20.42;13.65;;;8.20;99.90;;;;;;4980642;28;20408;-69
2022/03/21 08:42:19;;;;;;;22.67;14.35;;;8.30;99.90;;;;;;4973879;28;20085;-66
2022/03/21 08:44:45;;;;;;;19.27;13.50;;;8.40;99.90;;;;;;4983652;28;20050;-67
2022/03/21 08:47:11;;;;;;;22.38;14.52;;;8.60;99.90;;;;;;4993431;28;20379;-67
2022/03/21 08:49:38;;;;;;;19.70;12.73;;;8.70;99.90;;;;;;4993614;28;20050;-66
2022/03/21 08:52:06;;;;;;;19.55;12.77;;;8.80;99.90;;;;;;4993457;28;20177;-65
2022/03/21 08:54:32;;;;;;;21.98;13.57;;;9.00;99.90;;;;;;4992899;28;20062;-66
2022/03/21 08:56:58;;;;;;;18.50;13.60;;;9.10;99.90;;;;;;4992136;28;20065;-67
2022/03/21 08:59:27;;;;;;;19.77;13.85;;;9.20;99.90;;;;;;4975561;28;20055;-67
2022/03/21 09:01:53;;;;;;;21.10;14.15;;;9.30;99.90;;;;;;4976265;28;20081;-68
2022/03/21 09:04:18;;;;;;;19.67;12.95;;;9.50;99.90;;;;;;4993060;28;20148;-66
2022/03/21 09:06:44;;;;;;;20.83;13.38;;;9.60;99.90;;;;;;4978083;28;20150;-65
2022/03/21 09:09:09;;;;;;;18.90;13.32;;;9.70;99.90;;;;;;4984389;28;20046;-67
2022/03/21 09:11:35;;;;;;;21.25;13.43;;;9.90;99.90;;;;;;4991396;28;20054;-66
2022/03/21 09:14:02;;;;;;;20.85;13.63;;;10.00;99.90;;;;;;4982157;28;20061;-67
2022/03/21 09:16:29;;;;;;;20.88;14.18;;;10.10;99.90;;;;;;4984226;28;20057;-68
2022/03/21 09:18:54;;;;;;;17.85;12.77;;;10.20;99.90;;;;;;4991585;28;20046;-65
2022/03/21 09:21:20;;;;;;;21.23;15.05;;;10.20;99.90;;;;;;5005072;28;20063;-65
2022/03/21 09:23:45;;;;;;;23.23;14.23;;;10.30;99.90;;;;;;4981981;28;20058;-68
2022/03/21 09:26:11;;;;;;;19.48;13.90;;;10.40;99.90;;;;;;4993242;28;20129;-63
2022/03/21 09:28:43;;;;;;;20.88;12.80;;;10.50;99.90;;;;;;4975936;28;20499;-64
2022/03/21 09:31:13;;;;;;;21.98;14.05;;;10.70;99.90;;;;;;4993978;28;20053;-67
2022/03/21 09:33:41;;;;;;;20.38;14.40;;;10.80;99.90;;;;;;4990646;28;20141;-66
2022/03/21 09:36:08;;;;;;;21.85;13.75;;;10.90;99.90;;;;;;4993710;28;20054;-66
2022/03/21 09:38:34;;;;;;;21.75;14.73;;;11.00;99.90;;;;;;4990258;28;20051;-67
2022/03/21 09:41:03;;;;;;;21.48;14.75;;;11.10;99.90;;;;;;4982930;28;20054;-66
2022/03/21 09:43:30;;;;;;;21.85;14.90;;;11.10;99.90;;;;;;4983451;28;20462;-66
2022/03/21 09:45:57;;;;;;;26.88;16.63;;;11.20;99.90;;;;;;4984264;28;20046;-66
2022/03/21 09:48:25;;;;;;;24.52;16.55;;;11.30;99.90;;;;;;4968127;28;20046;-66
2022/03/21 09:50:52;;;;;;;25.58;17.33;;;11.40;99.90;;;;;;4990273;28;20062;-66
2022/03/21 09:53:18;;;;;;;24.60;16.95;;;11.50;99.90;;;;;;4984567;28;20545;-68
2022/03/21 09:55:45;;;;;;;24.08;17.00;;;11.60;99.90;;;;;;4989484;28;20061;-66
2022/03/21 09:58:11;;;;;;;26.65;18.30;;;11.70;99.90;;;;;;5002985;28;20343;-67
2022/03/21 10:00:39;;;;;;;26.30;18.00;;;11.80;99.90;;;;;;4985294;28;20049;-67
2022/03/21 10:03:05;;;;;;;26.77;18.70;;;12.00;99.90;;;;;;4983164;28;20106;-67
2022/03/21 10:05:33;;;;;;;23.73;17.23;;;12.00;99.90;;;;;;4989279;28;20050;-65
2022/03/21 10:08:11;;;;;;;24.80;17.85;;;12.10;99.90;;;;;;4978996;28;20051;-66
2022/03/21 10:10:38;;;;;;;26.48;17.65;;;12.20;99.90;;;;;;4989586;28;20054;-65
2022/03/21 10:13:04;;;;;;;29.08;18.92;;;12.30;99.90;;;;;;4993306;28;20100;-67
2022/03/21 10:15:32;;;;;;;22.83;17.83;;;12.40;99.90;;;;;;4990724;28;20047;-68
2022/03/21 10:18:08;;;;;;;27.77;18.13;;;12.50;99.90;;;;;;4993339;28;20043;-65
2022/03/21 10:20:35;;;;;;;27.90;17.90;;;12.50;99.90;;;;;;4978565;28;20506;-64
2022/03/21 10:23:17;;;;;;;26.05;18.13;;;12.50;99.90;;;;;;4972601;28;20388;-64
2022/03/21 10:25:43;;;;;;;26.52;17.73;;;12.50;99.90;;;;;;4993631;28;20046;-65
2022/03/21 10:28:09;;;;;;;26.00;18.60;;;12.60;99.90;;;;;;4991351;28;20046;-66
2022/03/21 10:30:42;;;;;;;24.90;18.40;;;12.70;99.90;;;;;;4993860;28;20112;-67
2022/03/21 10:33:08;;;;;;;26.55;18.60;;;12.80;99.90;;;;;;4982292;28;20053;-66
2022/03/21 10:35:43;;;;;;;30.20;18.58;;;12.80;99.90;;;;;;4993190;28;20121;-67
2022/03/21 10:38:10;;;;;;;22.52;17.55;;;12.80;99.90;;;;;;4996051;28;20054;-66
2022/03/21 10:40:44;;;;;;;25.80;18.33;;;12.90;99.90;;;;;;4997249;28;20046;-65
2022/03/21 10:43:11;;;;;;;26.00;19.08;;;13.00;99.90;;;;;;4996962;28;20058;-67
2022/03/21 10:45:43;;;;;;;27.80;19.30;;;13.00;99.90;;;;;;5008665;28;20053;-65
2022/03/21 10:48:14;;;;;;;24.52;17.40;;;13.10;99.90;;;;;;5008699;28;20130;-66
2022/03/21 10:50:42;;;;;;;24.25;16.73;;;13.10;99.90;;;;;;4994662;28;20105;-67
2022/03/21 10:53:15;;;;;;;24.33;17.30;;;13.10;99.90;;;;;;4991909;28;20046;-65
2022/03/21 10:55:47;;;;;;;22.17;16.63;;;13.20;99.90;;;;;;4985775;28;20062;-64
2022/03/21 10:58:14;;;;;;;26.65;18.17;;;13.20;99.90;;;;;;4992632;28;20057;-64
2022/03/21 11:00:40;;;;;;;27.98;19.05;;;13.30;99.90;;;;;;4994974;28;20116;-65
2022/03/21 11:03:15;;;;;;;25.90;17.80;;;13.40;99.90;;;;;;4994932;28;20058;-67
2022/03/21 11:05:44;;;;;;;26.38;18.63;;;13.60;99.90;;;;;;4995101;28;20426;-67
2022/03/21 11:08:11;;;;;;;23.95;18.23;;;13.60;99.90;;;;;;4981319;28;20491;-66
2022/03/21 11:10:38;;;;;;;24.48;17.42;;;13.70;99.90;;;;;;5008153;28;20482;-65
2022/03/21 11:13:06;;;;;;;26.55;18.58;;;13.70;99.90;;;;;;4980930;28;20371;-66
2022/03/21 11:15:35;;;;;;;23.52;17.63;;;13.60;99.90;;;;;;4985171;28;20054;-66
2022/03/21 11:18:00;;;;;;;26.65;17.95;;;13.60;99.90;;;;;;4979394;28;20062;-67
2022/03/21 11:20:29;;;;;;;26.23;18.10;;;13.60;99.90;;;;;;4976318;28;20062;-66
2022/03/21 11:22:56;;;;;;;24.95;17.95;;;13.60;99.90;;;;;;4976771;28;20058;-66
2022/03/21 11:25:24;;;;;;;26.85;17.02;;;13.70;99.90;;;;;;4994012;28;20050;-67
2022/03/21 11:28:12;;;;;;;22.58;17.00;;;13.80;99.90;;;;;;4994808;28;20046;-66
2022/03/21 11:30:55;;;;;;;24.55;16.63;;;13.90;95.70;;;;;;4994613;28;20050;-66
2022/03/21 11:33:44;;;;;;;25.58;16.98;;;13.90;99.90;;;;;;4991094;28;20053;-67
2022/03/21 11:36:11;;;;;;;23.88;18.00;;;14.00;93.00;;;;;;4990862;28;20108;-65
2022/03/21 11:38:47;;;;;;;23.75;17.02;;;14.00;99.80;;;;;;4996314;28;20069;-67
2022/03/21 11:41:21;;;;;;;24.38;17.73;;;13.90;94.70;;;;;;4975611;28;20483;-67
2022/03/21 11:44:08;;;;;;;26.30;17.50;;;13.90;77.50;;;;;;4990746;28;20054;-66
2022/03/21 11:46:35;;;;;;;25.13;17.50;;;13.90;87.30;;;;;;4987430;28;20050;-67
2022/03/21 11:49:03;;;;;;;25.70;17.55;;;14.00;97.50;;;;;;4985268;28;20058;-68
2022/03/21 11:51:40;;;;;;;25.20;18.95;;;14.10;91.90;;;;;;4986702;28;20054;-65
2022/03/21 11:54:34;;;;;;;25.88;18.17;;;14.20;86.70;;;;;;5009206;28;20062;-67
2022/03/21 11:57:01;;;;;;;26.83;17.65;;;14.20;81.00;;;;;;4982912;28;20139;-67
2022/03/21 11:59:32;;;;;;;27.55;17.58;;;14.20;95.30;;;;;;4977832;28;20439;-66
2022/03/21 12:01:59;;;;;;;29.13;18.33;;;14.30;84.70;;;;;;4995658;28;20404;-66
2022/03/21 12:04:24;;;;;;;26.58;17.92;;;14.40;96.00;;;;;;4986692;28;20058;-67
2022/03/21 12:06:51;;;;;;;25.38;17.70;;;14.40;92.40;;;;;;4984146;28;20150;-67
2022/03/21 12:09:17;;;;;;;26.63;18.90;;;14.50;92.00;;;;;;4988885;28;20498;-67
2022/03/21 12:11:46;;;;;;;25.55;18.17;;;14.50;88.90;;;;;;4984574;28;20085;-67
2022/03/21 12:14:30;;;;;;;24.75;17.67;;;14.60;87.70;;;;;;4987548;28;20480;-66
2022/03/21 12:17:01;;;;;;;26.45;18.83;;;14.70;86.70;;;;;;4959051;28;20062;-66
2022/03/21 12:19:48;;;;;;;24.75;18.77;;;14.80;83.70;;;;;;4975077;28;20189;-67
2022/03/21 12:22:29;;;;;;;23.88;16.88;;;14.90;81.70;;;;;;4975100;28;20055;-67
2022/03/21 12:25:10;;;;;;;27.35;18.52;;;14.80;78.40;;;;;;4975902;28;20055;-67
2022/03/21 12:27:58;;;;;;;23.33;17.23;;;14.90;75.40;;;;;;4983863;28;20054;-66
2022/03/21 12:30:23;;;;;;;22.65;17.45;;;15.10;79.50;;;;;;4994150;28;20104;-68
2022/03/21 12:32:53;;;;;;;27.88;17.55;;;15.10;76.70;;;;;;4985641;28;20054;-67
2022/03/21 12:35:31;;;;;;;26.58;17.83;;;15.10;71.50;;;;;;4984657;28;20051;-65
2022/03/21 12:38:02;;;;;;;25.00;17.55;;;15.10;72.00;;;;;;5008538;28;20062;-67
2022/03/21 12:40:27;;;;;;;25.17;17.77;;;15.10;71.30;;;;;;4981597;28;20061;-67
2022/03/21 12:42:57;;;;;;;27.40;17.80;;;15.10;72.50;;;;;;4982611;28;20054;-67
2022/03/21 12:45:23;;;;;;;29.80;18.90;;;15.10;72.30;;;;;;4993473;28;20089;-66
2022/03/21 12:47:49;;;;;;;28.33;18.70;;;15.20;73.00;;;;;;5010245;28;20062;-66
2022/03/21 12:50:20;;;;;;;24.52;18.33;;;15.20;71.40;;;;;;5008228;28;20101;-67
2022/03/21 12:52:52;;;;;;;23.52;18.20;;;15.20;70.50;;;;;;4988435;28;20058;-67
2022/03/21 12:55:18;;;;;;;26.15;17.60;;;15.30;69.50;;;;;;4993348;28;20050;-66